createdAt,value
2022-10-28T00:01:29.861Z,15.37
2022-10-28T00:03:59.863Z,12.83
2022-10-28T00:06:31.274Z,16.50
2022-10-28T00:09:00.106Z,15.00
2022-10-28T00:11:30.150Z,15.73
2022-10-28T00:14:02.803Z,12.77
2022-10-28T00:16:32.561Z,17.73
2022-10-28T00:19:02.068Z,16.80
2022-10-28T00:21:32.223Z,16.50
2022-10-28T00:24:00.585Z,16.00
2022-10-28T00:26:32.024Z,19.40
2022-10-28T00:29:04.797Z,15.27
2022-10-28T00:31:34.481Z,15.50
2022-10-28T00:34:04.926Z,16.43
2022-10-28T00:36:37.152Z,15.37
2022-10-28T00:39:11.365Z,13.77
2022-10-28T00:41:41.909Z,16.13
2022-10-28T00:44:58.794Z,13.03
2022-10-28T00:47:52.741Z,12.13
2022-10-28T00:50:41.198Z,13.77
2022-10-28T00:53:15.165Z,12.80
2022-10-28T00:55:44.317Z,12.60
2022-10-28T00:58:13.381Z,13.33
2022-10-28T01:00:44.662Z,12.73
2022-10-28T01:03:14.380Z,13.77
2022-10-28T01:05:44.563Z,15.03
2022-10-28T01:08:12.995Z,15.73
2022-10-28T01:10:56.959Z,15.87
2022-10-28T01:13:37.835Z,15.40
2022-10-28T01:16:13.136Z,16.10
2022-10-28T01:18:55.525Z,17.43
2022-10-28T01:21:59.129Z,16.67
2022-10-28T01:24:54.139Z,21.70
2022-10-28T01:27:48.627Z,21.67
2022-10-28T01:30:21.226Z,20.37
2022-10-28T01:33:00.150Z,21.77
2022-10-28T01:35:34.679Z,19.27
2022-10-28T01:38:15.755Z,22.07
2022-10-28T01:40:49.393Z,25.77
2022-10-28T01:43:25.372Z,23.17
2022-10-28T01:45:59.571Z,30.17
2022-10-28T01:48:33.884Z,22.50
2022-10-28T01:51:09.189Z,31.80
2022-10-28T01:53:43.681Z,27.37
2022-10-28T01:56:16.975Z,24.00
2022-10-28T01:58:46.371Z,27.90
2022-10-28T02:01:15.551Z,30.40
2022-10-28T02:03:47.599Z,22.10
2022-10-28T02:06:20.341Z,27.47
2022-10-28T02:09:01.139Z,28.27
2022-10-28T02:11:53.928Z,24.93
2022-10-28T02:14:34.358Z,25.97
2022-10-28T02:17:11.956Z,27.97
2022-10-28T02:19:50.272Z,28.23
2022-10-28T02:22:24.026Z,23.80
2022-10-28T02:25:00.452Z,25.70
2022-10-28T02:27:35.315Z,24.53
2022-10-28T02:30:08.743Z,25.93
2022-10-28T02:32:42.112Z,29.20
2022-10-28T02:35:18.133Z,21.93
2022-10-28T02:37:49.991Z,24.37
2022-10-28T02:40:23.400Z,25.53
2022-10-28T02:42:56.405Z,26.70
2022-10-28T02:45:32.538Z,27.80
2022-10-28T02:48:06.873Z,25.37
2022-10-28T02:50:41.590Z,31.27
2022-10-28T02:53:19.323Z,22.80
2022-10-28T02:55:56.685Z,26.10
2022-10-28T02:58:24.829Z,26.57
2022-10-28T03:00:53.273Z,20.67
2022-10-28T03:03:21.726Z,26.10
2022-10-28T03:05:51.301Z,24.97
2022-10-28T03:08:20.018Z,24.63
2022-10-28T03:10:48.501Z,25.57
2022-10-28T03:13:16.742Z,24.43
2022-10-28T03:15:44.913Z,24.57
2022-10-28T03:18:13.227Z,21.90
2022-10-28T03:20:42.392Z,24.23
2022-10-28T03:23:12.292Z,24.63
2022-10-28T03:25:41.298Z,23.30
2022-10-28T03:28:09.468Z,27.77
2022-10-28T03:30:38.433Z,23.40
2022-10-28T03:33:06.962Z,28.37
2022-10-28T03:35:35.198Z,24.80
2022-10-28T03:38:03.531Z,23.30
2022-10-28T03:40:34.436Z,20.77
2022-10-28T03:43:02.647Z,27.73
2022-10-28T03:45:31.796Z,26.60
2022-10-28T03:48:00.373Z,22.70
2022-10-28T03:50:28.507Z,26.80
2022-10-28T03:52:57.143Z,21.80
2022-10-28T03:55:26.371Z,26.17
2022-10-28T03:57:56.284Z,26.20
2022-10-28T04:00:25.189Z,25.83
2022-10-28T04:02:53.740Z,25.90
2022-10-28T04:05:22.867Z,27.13
2022-10-28T04:07:51.377Z,28.30
2022-10-28T04:10:19.485Z,25.10
2022-10-28T04:12:47.686Z,22.03
2022-10-28T04:15:17.516Z,26.27
2022-10-28T04:17:45.545Z,30.53
2022-10-28T04:20:13.916Z,28.40
2022-10-28T04:22:42.226Z,30.27
2022-10-28T04:25:11.484Z,31.27
2022-10-28T04:27:39.955Z,27.90
2022-10-28T04:30:09.201Z,29.27
2022-10-28T04:32:39.037Z,31.23
2022-10-28T04:35:08.009Z,27.47
2022-10-28T04:37:36.571Z,34.63
2022-10-28T04:40:05.216Z,25.97
2022-10-28T04:42:33.337Z,25.13
2022-10-28T04:45:01.658Z,23.87
2022-10-28T04:47:30.519Z,36.20
2022-10-28T04:50:00.408Z,29.87
2022-10-28T04:52:29.221Z,26.43
2022-10-28T04:54:57.756Z,27.47
2022-10-28T04:57:25.934Z,27.93
2022-10-28T04:59:54.271Z,30.23
2022-10-28T05:02:24.169Z,29.97
2022-10-28T05:04:52.476Z,29.10
2022-10-28T05:07:23.570Z,28.60
2022-10-28T05:09:51.996Z,28.23
2022-10-28T05:12:20.282Z,31.93
2022-10-28T05:14:51.191Z,27.90
2022-10-28T05:17:21.649Z,26.60
2022-10-28T05:19:50.226Z,25.40
2022-10-28T05:22:18.462Z,31.53
2022-10-28T05:24:48.062Z,29.13
2022-10-28T05:27:17.349Z,32.10
2022-10-28T05:29:45.861Z,27.97
2022-10-28T05:32:14.149Z,29.83
2022-10-28T05:34:42.862Z,24.50
2022-10-28T05:37:12.156Z,24.20
2022-10-28T05:39:43.023Z,26.67
2022-10-28T05:42:15.484Z,28.10
2022-10-28T05:44:44.198Z,24.87
2022-10-28T05:47:12.708Z,25.73
2022-10-28T05:49:44.828Z,24.83
2022-10-28T05:52:13.350Z,25.80
2022-10-28T05:54:41.666Z,24.20
2022-10-28T05:57:10.378Z,25.37
2022-10-28T05:59:40.168Z,26.53
2022-10-28T06:02:11.487Z,33.47
2022-10-28T06:04:40.044Z,23.50
2022-10-28T06:07:08.786Z,32.33
2022-10-28T06:09:37.369Z,29.77
2022-10-28T06:12:07.149Z,26.07
2022-10-28T06:14:35.548Z,27.10
2022-10-28T06:17:05.336Z,26.13
2022-10-28T06:19:33.666Z,29.27
2022-10-28T06:22:01.776Z,26.27
2022-10-28T06:24:30.010Z,30.33
2022-10-28T06:26:58.785Z,28.70
2022-10-28T06:29:27.273Z,23.83
2022-10-28T06:31:55.785Z,26.50
2022-10-28T06:34:27.020Z,30.23
2022-10-28T06:36:55.312Z,27.97
2022-10-28T06:39:23.804Z,25.97
2022-10-28T06:41:52.060Z,24.10
2022-10-28T06:44:20.207Z,28.53
2022-10-28T06:46:50.252Z,26.43
2022-10-28T06:49:18.796Z,21.03
2022-10-28T06:51:49.926Z,23.47
2022-10-28T06:54:19.084Z,22.67
2022-10-28T06:56:48.992Z,29.63
2022-10-28T06:59:17.273Z,24.20
2022-10-28T07:01:45.959Z,20.23
2022-10-28T07:04:14.667Z,20.10
2022-10-28T07:06:43.169Z,24.70
2022-10-28T07:09:15.927Z,27.93
2022-10-28T07:11:45.144Z,18.47
2022-10-28T07:14:20.557Z,18.57
2022-10-28T07:16:48.710Z,24.80
2022-10-28T07:19:19.093Z,19.57
2022-10-28T07:21:51.288Z,16.87
2022-10-28T07:24:20.847Z,16.40
2022-10-28T07:26:52.010Z,24.63
2022-10-28T07:29:22.740Z,24.23
2022-10-28T07:31:50.859Z,31.97
2022-10-28T07:34:25.851Z,18.80
2022-10-28T07:36:56.701Z,16.07
2022-10-28T07:39:26.449Z,26.30
2022-10-28T07:41:54.749Z,18.23
2022-10-28T07:44:23.228Z,17.97
2022-10-28T07:46:55.597Z,19.83
2022-10-28T07:49:26.870Z,26.67
2022-10-28T07:51:54.942Z,22.33
2022-10-28T07:54:23.067Z,26.03
2022-10-28T07:56:53.134Z,16.60
2022-10-28T07:59:25.850Z,21.50
2022-10-28T08:01:55.397Z,19.93
2022-10-28T08:04:23.756Z,18.10
2022-10-28T08:06:51.919Z,18.77
2022-10-28T08:09:20.374Z,18.57
2022-10-28T08:11:48.386Z,19.23
2022-10-28T08:14:17.846Z,25.73
2022-10-28T08:16:47.569Z,22.60
2022-10-28T08:19:15.806Z,18.60
2022-10-28T08:21:44.139Z,20.33
2022-10-28T08:24:12.557Z,20.90
2022-10-28T08:26:41.039Z,24.97
2022-10-28T08:29:11.932Z,27.17
2022-10-28T08:31:44.824Z,21.60
2022-10-28T08:34:13.018Z,22.53
2022-10-28T08:36:41.830Z,23.20
2022-10-28T08:39:10.354Z,21.43
2022-10-28T08:41:42.038Z,18.83
2022-10-28T08:44:37.279Z,20.10
2022-10-28T08:47:17.662Z,26.80
2022-10-28T08:49:50.326Z,25.40
2022-10-28T08:52:29.708Z,26.33
2022-10-28T08:55:03.768Z,21.07
2022-10-28T08:57:39.229Z,24.00
2022-10-28T09:00:10.720Z,21.27
2022-10-28T09:02:52.597Z,18.60
2022-10-28T09:05:23.870Z,23.63
2022-10-28T09:07:53.070Z,19.07
2022-10-28T09:10:40.353Z,22.33
2022-10-28T09:13:18.503Z,19.17
2022-10-28T09:15:56.551Z,19.27
2022-10-28T09:18:39.339Z,16.07
2022-10-28T09:21:16.367Z,21.40
2022-10-28T09:23:52.100Z,16.60
2022-10-28T09:26:25.848Z,19.77
2022-10-28T09:29:05.502Z,13.40
2022-10-28T09:31:37.211Z,14.63
2022-10-28T09:34:20.333Z,17.77
2022-10-28T09:36:53.778Z,19.60
2022-10-28T09:39:27.992Z,15.47
2022-10-28T09:42:01.275Z,16.63
2022-10-28T09:44:40.404Z,15.10
2022-10-28T09:47:17.884Z,11.97
2022-10-28T09:49:50.949Z,19.47
2022-10-28T09:52:24.396Z,16.27
2022-10-28T09:54:55.646Z,14.47
2022-10-28T09:57:31.855Z,16.50
2022-10-28T10:00:01.353Z,19.83
2022-10-28T10:02:31.967Z,14.23
2022-10-28T10:05:04.049Z,14.23
2022-10-28T10:07:37.504Z,11.30
2022-10-28T10:10:13.831Z,18.00
2022-10-28T10:12:42.741Z,15.47
2022-10-28T10:15:20.446Z,15.13
2022-10-28T10:17:50.698Z,13.63
2022-10-28T10:20:21.889Z,13.63
2022-10-28T10:22:51.177Z,13.17
2022-10-28T10:25:33.852Z,13.33
2022-10-28T10:28:05.158Z,16.43
2022-10-28T10:30:37.725Z,11.13
2022-10-28T10:33:08.788Z,11.23
2022-10-28T10:35:42.651Z,15.37
2022-10-28T10:38:17.114Z,9.13
2022-10-28T10:40:51.151Z,9.67
2022-10-28T10:43:26.073Z,8.57
2022-10-28T10:46:01.399Z,8.83
2022-10-28T10:48:32.407Z,13.63
2022-10-28T10:51:07.446Z,8.40
2022-10-28T10:53:37.775Z,10.87
2022-10-28T10:56:10.901Z,9.53
2022-10-28T10:58:41.933Z,9.93
2022-10-28T11:01:11.793Z,12.07
2022-10-28T11:03:49.710Z,12.07
2022-10-28T11:06:25.205Z,7.47
2022-10-28T11:08:58.861Z,9.27
2022-10-28T11:11:35.468Z,7.77
2022-10-28T11:14:05.793Z,7.60
2022-10-28T11:16:34.270Z,8.00
2022-10-28T11:19:17.524Z,5.47
2022-10-28T11:21:59.977Z,4.20
2022-10-28T11:24:42.926Z,7.17
2022-10-28T11:27:24.113Z,6.40
2022-10-28T11:29:52.701Z,7.87
2022-10-28T11:32:54.448Z,5.33
2022-10-28T11:35:45.275Z,6.20
2022-10-28T11:38:28.694Z,6.83
2022-10-28T11:41:12.902Z,5.67
2022-10-28T11:43:54.587Z,7.07
2022-10-28T11:46:38.003Z,4.80
2022-10-28T11:49:59.264Z,6.23
2022-10-28T11:52:45.081Z,11.77
2022-10-28T11:55:23.483Z,5.47
2022-10-28T11:58:03.916Z,9.20
2022-10-28T12:00:45.469Z,7.50
2022-10-28T12:03:45.705Z,10.67
2022-10-28T12:06:19.436Z,7.97
2022-10-28T12:09:09.059Z,10.03
2022-10-28T12:14:31.375Z,7.23
2022-10-28T12:17:09.927Z,12.93
2022-10-28T12:19:46.406Z,11.73
2022-10-28T12:22:23.551Z,10.50
2022-10-28T12:24:54.323Z,9.77
2022-10-28T12:27:27.435Z,12.90
2022-10-28T12:30:01.642Z,7.20
2022-10-28T12:32:33.693Z,10.27
2022-10-28T12:35:06.963Z,11.23
2022-10-28T12:37:43.496Z,9.27
2022-10-28T12:40:21.092Z,8.40
2022-10-28T12:42:56.672Z,8.03
2022-10-28T12:45:26.623Z,9.30
2022-10-28T12:48:02.835Z,6.37
2022-10-28T12:50:38.892Z,7.40
2022-10-28T12:53:26.042Z,6.10
2022-10-28T12:56:00.567Z,5.33
2022-10-28T12:58:35.144Z,7.63
2022-10-28T13:01:26.920Z,6.30
2022-10-28T13:03:55.801Z,8.50
2022-10-28T13:06:44.080Z,10.80
2022-10-28T13:09:39.290Z,8.73
2022-10-28T13:12:30.651Z,8.33
2022-10-28T13:15:25.832Z,10.87
2022-10-28T13:18:08.076Z,8.23
2022-10-28T13:20:47.939Z,11.10
2022-10-28T13:23:28.170Z,8.20
2022-10-28T13:26:12.066Z,11.57
2022-10-28T13:28:47.102Z,15.57
2022-10-28T13:31:17.574Z,14.30
2022-10-28T13:33:53.625Z,9.77
2022-10-28T13:36:27.646Z,9.63
2022-10-28T13:39:00.010Z,11.47
2022-10-28T13:41:32.537Z,8.60
2022-10-28T13:44:25.826Z,9.00
2022-10-28T13:47:32.751Z,7.77
2022-10-28T13:50:26.647Z,12.03
2022-10-28T13:53:45.275Z,7.70
2022-10-28T13:56:29.120Z,13.00
2022-10-28T13:59:01.139Z,16.57
2022-10-28T14:02:02.051Z,12.30
2022-10-28T14:04:40.306Z,10.17
2022-10-28T14:07:24.559Z,13.83
2022-10-28T14:09:56.952Z,18.23
2022-10-28T14:12:29.227Z,16.20
2022-10-28T14:15:05.597Z,13.97
2022-10-28T14:17:41.671Z,15.67
2022-10-28T14:20:24.850Z,19.03
2022-10-28T14:22:54.568Z,22.93
2022-10-28T14:26:05.621Z,14.07
2022-10-28T14:28:56.208Z,16.60
2022-10-28T14:31:42.208Z,16.17
2022-10-28T14:34:35.681Z,13.23
2022-10-28T14:37:20.003Z,15.07
2022-10-28T14:40:10.696Z,17.10
2022-10-28T14:42:55.081Z,14.90
2022-10-28T14:45:34.524Z,17.27
2022-10-28T14:48:23.892Z,21.70
2022-10-28T14:50:54.668Z,20.30
2022-10-28T14:53:42.249Z,14.37
2022-10-28T14:56:13.992Z,19.10
2022-10-28T14:58:44.112Z,22.47
2022-10-28T15:01:36.671Z,13.97
2022-10-28T15:04:12.531Z,21.40
2022-10-28T15:06:43.936Z,15.57
2022-10-28T15:09:21.584Z,15.13
2022-10-28T15:11:56.057Z,17.60
2022-10-28T15:14:33.380Z,11.50
2022-10-28T15:17:11.888Z,15.37
2022-10-28T15:19:40.120Z,17.07
2022-10-28T15:22:15.317Z,17.67
2022-10-28T15:24:54.439Z,16.40
2022-10-28T15:27:24.167Z,18.70
2022-10-28T15:29:52.856Z,18.60
2022-10-28T15:32:35.596Z,21.27
2022-10-28T15:35:26.826Z,20.57
2022-10-28T15:37:56.195Z,21.23
2022-10-28T15:40:29.989Z,21.13
2022-10-28T15:43:00.717Z,16.23
2022-10-28T15:45:31.502Z,17.17
2022-10-28T15:48:02.051Z,21.13
2022-10-28T15:50:33.210Z,21.53
2022-10-28T15:53:32.608Z,26.33
2022-10-28T15:56:20.300Z,21.63
2022-10-28T15:59:02.008Z,18.63
2022-10-28T16:01:38.393Z,21.47
2022-10-28T16:04:08.071Z,18.20
2022-10-28T16:06:38.400Z,19.27
2022-10-28T16:09:17.214Z,19.90
2022-10-28T16:11:50.320Z,16.27
2022-10-28T16:14:38.300Z,14.97
2022-10-28T16:17:11.313Z,21.30
2022-10-28T16:19:44.559Z,15.93
2022-10-28T16:25:05.682Z,15.40
2022-10-28T16:31:31.284Z,18.67
2022-10-28T16:34:15.706Z,21.83
2022-10-28T16:36:44.165Z,19.20
2022-10-28T16:39:13.523Z,16.63
2022-10-28T16:41:42.233Z,17.77
2022-10-28T16:44:18.215Z,18.27
2022-10-28T16:46:48.396Z,22.17
2022-10-28T16:49:18.914Z,22.20
2022-10-28T16:51:47.249Z,38.73
2022-10-28T16:54:15.594Z,18.27
2022-10-28T16:56:43.849Z,21.57
2022-10-28T16:59:12.143Z,18.70
2022-10-28T17:01:40.840Z,19.43
2022-10-28T17:04:11.820Z,22.83
2022-10-28T17:06:40.234Z,26.83
2022-10-28T17:09:08.825Z,26.53
2022-10-28T17:11:37.220Z,18.63
2022-10-28T17:14:05.521Z,20.30
2022-10-28T17:16:33.982Z,22.77
2022-10-28T17:19:03.998Z,22.47
2022-10-28T17:21:34.284Z,22.10
2022-10-28T17:24:02.680Z,22.33
2022-10-28T17:26:31.436Z,18.43
2022-10-28T17:28:59.809Z,20.90
2022-10-28T17:31:28.074Z,20.07
2022-10-28T17:33:57.175Z,20.77
2022-10-28T17:36:25.538Z,24.50
2022-10-28T17:38:55.947Z,21.07
2022-10-28T17:41:24.511Z,21.50
2022-10-28T17:43:54.545Z,21.07
2022-10-28T17:46:23.978Z,22.40
2022-10-28T17:48:55.962Z,18.90
2022-10-28T17:51:25.276Z,14.10
2022-10-28T17:53:56.945Z,18.13
2022-10-28T17:56:25.424Z,20.07
2022-10-28T17:58:54.338Z,20.17
2022-10-28T18:01:22.975Z,17.10
2022-10-28T18:03:52.348Z,15.73
2022-10-28T18:06:20.588Z,15.77
2022-10-28T18:11:21.206Z,17.30
2022-10-28T18:13:53.188Z,16.80
2022-10-28T18:16:24.500Z,16.03
2022-10-28T18:18:54.350Z,15.83
2022-10-28T18:21:22.949Z,18.83
2022-10-28T18:23:53.478Z,23.57
2022-10-28T18:26:23.524Z,19.40
2022-10-28T18:28:51.779Z,16.47
2022-10-28T18:31:21.720Z,19.87
2022-10-28T18:33:54.154Z,17.13
2022-10-28T18:36:24.933Z,18.50
2022-10-28T18:38:53.328Z,19.83
2022-10-28T18:41:24.410Z,17.90
2022-10-28T18:43:55.227Z,16.80
2022-10-28T18:46:23.517Z,17.00
2022-10-28T18:48:51.989Z,17.20
2022-10-28T18:51:20.777Z,18.13
2022-10-28T18:53:50.665Z,19.50
2022-10-28T18:56:21.603Z,18.17
2022-10-28T18:58:52.677Z,18.80
2022-10-28T19:01:22.779Z,16.73
2022-10-28T19:03:54.668Z,15.30
2022-10-28T19:06:24.020Z,23.77
2022-10-28T19:08:53.895Z,18.57
2022-10-28T19:11:23.568Z,21.53
2022-10-28T19:13:53.511Z,18.77
2022-10-28T19:16:21.813Z,23.33
2022-10-28T19:18:50.124Z,23.73
2022-10-28T19:21:18.713Z,24.83
2022-10-28T19:23:46.942Z,22.20
2022-10-28T19:26:15.328Z,23.70
2022-10-28T19:28:45.417Z,25.27
2022-10-28T19:31:16.573Z,28.07
2022-10-28T19:33:45.426Z,25.07
2022-10-28T19:36:17.797Z,31.07
2022-10-28T19:38:47.227Z,31.40
2022-10-28T19:41:17.534Z,30.93
2022-10-28T19:43:46.671Z,40.53
2022-10-28T19:46:17.610Z,42.53
2022-10-28T19:48:48.911Z,37.87
2022-10-28T19:51:18.964Z,36.93
2022-10-28T19:53:49.853Z,42.53
2022-10-28T19:56:19.718Z,46.13
2022-10-28T19:58:49.672Z,38.97
2022-10-28T20:01:19.940Z,34.37
2022-10-28T20:03:49.349Z,41.20
2022-10-28T20:06:19.801Z,44.23
2022-10-28T20:08:49.758Z,36.23
2022-10-28T20:11:24.780Z,33.20
2022-10-28T20:13:55.779Z,31.83
2022-10-28T20:16:26.699Z,33.10
2022-10-28T20:18:55.369Z,39.97
2022-10-28T20:21:25.604Z,34.50
2022-10-28T20:23:55.810Z,39.63
2022-10-28T20:26:26.147Z,35.27
2022-10-28T20:28:54.986Z,34.93
2022-10-28T20:31:26.425Z,35.67
2022-10-28T20:33:56.960Z,32.83
2022-10-28T20:36:27.187Z,34.40
2022-10-28T20:38:56.404Z,38.40
2022-10-28T20:41:25.198Z,35.40
2022-10-28T20:43:54.306Z,35.83
2022-10-28T20:46:23.711Z,45.93
2022-10-28T20:48:55.229Z,39.83
2022-10-28T20:51:24.404Z,36.20
2022-10-28T20:53:53.345Z,37.23
2022-10-28T20:56:24.024Z,38.80
2022-10-28T20:58:53.401Z,32.33
2022-10-28T21:01:23.786Z,33.37
2022-10-28T21:03:55.438Z,33.70
2022-10-28T21:06:24.266Z,37.90
2022-10-28T21:08:53.566Z,33.40
2022-10-28T21:11:23.747Z,39.97
2022-10-28T21:13:53.513Z,38.00
2022-10-28T21:16:23.208Z,36.40
2022-10-28T21:18:53.697Z,41.13
2022-10-28T21:21:23.629Z,38.37
2022-10-28T21:23:51.869Z,39.33
2022-10-28T21:26:20.609Z,35.20
2022-10-28T21:28:51.995Z,38.37
2022-10-28T21:31:22.109Z,46.67
2022-10-28T21:36:25.626Z,40.03
2022-10-28T21:38:56.724Z,40.30
2022-10-28T21:41:26.234Z,36.33
2022-10-28T21:43:55.120Z,35.50
2022-10-28T21:46:24.438Z,36.33
2022-10-28T21:48:53.785Z,42.57
2022-10-28T21:51:22.311Z,37.33
2022-10-28T21:53:51.757Z,37.83
2022-10-28T21:56:21.703Z,35.97
2022-10-28T21:58:52.139Z,33.33
2022-10-28T22:01:22.383Z,29.27
2022-10-28T22:03:52.657Z,31.00
2022-10-28T22:06:21.093Z,41.20
2022-10-28T22:08:49.486Z,39.63
2022-10-28T22:11:20.939Z,40.73
2022-10-28T22:13:56.208Z,41.57
2022-10-28T22:16:24.636Z,35.13
2022-10-28T22:18:52.934Z,46.63
2022-10-28T22:21:23.454Z,47.30
2022-10-28T22:23:52.513Z,48.73
2022-10-28T22:26:24.525Z,52.97
2022-10-28T22:28:53.424Z,47.07
2022-10-28T22:31:23.984Z,44.60
2022-10-28T22:33:54.342Z,44.87
2022-10-28T22:36:25.184Z,49.23
2022-10-28T22:38:54.010Z,48.47
2022-10-28T22:41:24.706Z,48.83
2022-10-28T22:43:54.615Z,47.23
2022-10-28T22:46:23.938Z,56.77
2022-10-28T22:48:52.687Z,57.83
2022-10-28T22:51:22.461Z,54.77
2022-10-28T22:53:50.765Z,52.10
2022-10-28T22:56:21.396Z,66.17
2022-10-28T22:58:55.428Z,58.60
2022-10-28T23:01:25.313Z,70.80
2022-10-28T23:03:54.463Z,64.63
2022-10-28T23:06:24.716Z,62.07
2022-10-28T23:08:53.319Z,59.83
2022-10-28T23:11:22.879Z,61.87
2022-10-28T23:13:54.343Z,52.27
2022-10-28T23:16:23.816Z,61.23
2022-10-28T23:18:53.297Z,71.83
2022-10-28T23:21:23.610Z,62.00
2022-10-28T23:23:54.560Z,59.53
2022-10-28T23:26:23.690Z,71.10
2022-10-28T23:28:54.563Z,63.80
2022-10-28T23:31:24.171Z,73.57
2022-10-28T23:33:54.150Z,64.03
2022-10-28T23:36:22.523Z,59.83
2022-10-28T23:38:51.019Z,49.63
2022-10-28T23:41:21.103Z,72.57
2022-10-28T23:43:50.786Z,64.57
2022-10-28T23:46:21.258Z,50.57
2022-10-28T23:48:49.891Z,51.13
2022-10-28T23:51:19.500Z,47.50
2022-10-28T23:53:47.846Z,48.33
2022-10-28T23:56:16.310Z,48.57
2022-10-28T23:58:44.582Z,47.97
